Time;durP1;ratioP1;P1;durP2;ratioP2;P2;SDS_P1;SDS_P2;PMS_P1;PMS_P2;Temp;Humidity;BMP_temperature;BMP_pressure;BME280_temperature;BME280_humidity;BME280_pressure;Samples;Min_cycle;Max_cycle;Signal;HPM_P1;HPM_P2
2022/02/04 00:23:40;;;;;;;4.10;2.10;;;;;;;;;;10369170;28;20096;-76
2022/02/04 00:28:51;;;;;;;1.60;0.98;;;;;;;;;;10368064;28;20043;-78
2022/02/04 00:34:01;;;;;;;4.53;2.20;;;;;;;;;;10370995;28;20125;-75
2022/02/04 00:39:08;;;;;;;4.43;2.17;;;;;;;;;;10375580;28;20065;-77
2022/02/04 00:44:19;;;;;;;4.87;2.00;;;;;;;;;;10380303;28;20153;-76
2022/02/04 00:49:32;;;;;;;5.20;2.30;;;;;;;;;;10386338;28;20146;-77
2022/02/04 00:54:49;;;;;;;5.72;2.20;;;;;;;;;;10374534;28;20044;-77
2022/02/04 01:26:49;;;;;;;4.20;2.13;;;;;;;;;;10370857;28;20609;-77
2022/02/04 01:31:53;;;;;;;4.10;2.10;;;;;;;;;;10380107;28;20045;-77
2022/02/04 01:36:57;;;;;;;4.47;2.30;;;;;;;;;;10386652;28;20037;-77
2022/02/04 01:42:00;;;;;;;;;;;;;;;;;;10381329;28;20030;-77
2022/02/04 01:47:04;;;;;;;5.37;2.37;;;;;;;;;;10351462;28;19962;-77
2022/02/04 01:52:08;;;;;;;3.07;1.80;;;;;;;;;;10353295;28;20052;-76
2022/02/04 01:57:11;;;;;;;4.30;1.73;;;;;;;;;;10351183;28;20181;-78
2022/02/04 02:02:15;;;;;;;5.27;2.53;;;;;;;;;;10350685;28;20042;-77
2022/02/04 02:07:21;;;;;;;6.30;2.80;;;;;;;;;;10353828;28;20042;-77
2022/02/04 02:12:29;;;;;;;7.37;2.53;;;;;;;;;;10355452;28;20453;-76
2022/02/04 02:34:20;;;;;;;6.50;2.40;;;;;;;;;;10361807;28;20088;-77
2022/02/04 02:44:50;;;;;;;5.47;2.80;;;;;;;;;;10340244;28;20094;-76
2022/02/04 02:50:25;;;;;;;7.13;3.20;;;;;;;;;;10347225;28;20023;-76
2022/02/04 02:55:35;;;;;;;;;;;;;;;;;;10346589;28;20041;-76
2022/02/04 03:00:54;;;;;;;4.70;2.53;;;;;;;;;;10354152;28;19921;-77
2022/02/04 03:05:58;;;;;;;7.47;3.53;;;;;;;;;;10356096;28;20030;-76
2022/02/04 03:11:02;;;;;;;9.10;3.92;;;;;;;;;;10351557;28;20038;-77
2022/02/04 03:16:07;;;;;;;7.47;2.93;;;;;;;;;;10353992;28;20038;-77
2022/02/04 03:21:14;;;;;;;3.40;1.73;;;;;;;;;;10353900;28;20038;-78
2022/02/04 03:26:27;;;;;;;5.87;2.80;;;;;;;;;;10354334;28;20483;-77
2022/02/04 03:31:37;;;;;;;7.30;3.17;;;;;;;;;;10351884;28;20050;-76
2022/02/04 03:36:40;;;;;;;2.27;1.27;;;;;;;;;;10373784;28;20502;-76
2022/02/04 03:41:43;;;;;;;4.88;2.78;;;;;;;;;;10357175;28;20038;-76
2022/02/04 03:46:48;;;;;;;4.23;2.37;;;;;;;;;;10355327;28;20183;-77
2022/02/04 03:51:52;;;;;;;6.03;1.90;;;;;;;;;;10367933;28;20104;-77
2022/02/04 03:56:55;;;;;;;5.40;2.63;;;;;;;;;;10352653;28;20045;-76
2022/02/04 04:02:00;;;;;;;7.00;3.40;;;;;;;;;;10361215;28;20034;-76
2022/02/04 04:07:03;;;;;;;;;;;;;;;;;;10356479;28;20034;-77
2022/02/04 04:12:06;;;;;;;12.40;4.50;;;;;;;;;;10355992;28;19925;-78
2022/02/04 04:17:11;;;;;;;14.43;4.60;;;;;;;;;;10355280;28;20098;-76
2022/02/04 04:22:14;;;;;;;9.83;4.00;;;;;;;;;;10354531;28;20046;-76
2022/02/04 04:27:19;;;;;;;13.17;4.43;;;;;;;;;;10366229;28;20084;-75
2022/02/04 04:32:24;;;;;;;4.37;2.57;;;;;;;;;;10366865;28;20129;-76
2022/02/04 04:37:27;;;;;;;8.77;2.73;;;;;;;;;;10365441;28;20034;-78
2022/02/04 04:42:48;;;;;;;15.30;5.67;;;;;;;;;;10367732;28;20069;-76
2022/02/04 05:30:36;;;;;;;10.83;4.20;;;;;;;;;;10374076;28;20124;-77
2022/02/04 05:35:41;;;;;;;15.82;4.68;;;;;;;;;;10375450;28;20038;-77
2022/02/04 05:40:49;;;;;;;10.97;3.50;;;;;;;;;;10369298;28;20046;-77
2022/02/04 05:46:00;;;;;;;8.70;3.17;;;;;;;;;;10399723;28;20517;-76
2022/02/04 05:51:25;;;;;;;11.33;3.97;;;;;;;;;;10394819;28;20082;-77
2022/02/04 05:56:36;;;;;;;12.20;5.13;;;;;;;;;;10407194;28;20108;-76
2022/02/04 06:01:51;;;;;;;18.00;5.50;;;;;;;;;;10401244;28;20121;-78
2022/02/04 06:22:59;;;;;;;5.97;2.53;;;;;;;;;;10411708;22;20115;-75
2022/02/04 06:28:01;;;;;;;13.07;4.73;;;;;;;;;;10407841;28;20063;-76
2022/02/04 06:33:05;;;;;;;12.23;5.27;;;;;;;;;;10392617;28;20088;-75
2022/02/04 06:38:09;;;;;;;7.00;2.77;;;;;;;;;;10373966;28;20101;-75
2022/02/04 06:43:13;;;;;;;16.80;5.73;;;;;;;;;;10373170;28;20038;-75
2022/02/04 06:48:16;;;;;;;8.90;3.37;;;;;;;;;;10367592;28;20033;-74
2022/02/04 06:53:20;;;;;;;11.03;4.37;;;;;;;;;;10364187;28;20076;-75
2022/02/04 06:58:23;;;;;;;;;;;;;;;;;;10368179;28;20350;-74
2022/02/04 07:03:26;;;;;;;6.30;2.50;;;;;;;;;;10360258;28;20016;-75
2022/02/04 07:08:36;;;;;;;13.57;5.13;;;;;;;;;;10368643;28;20034;-75
2022/02/04 07:13:48;;;;;;;8.77;2.87;;;;;;;;;;10356201;28;20452;-75
2022/02/04 07:24:14;;;;;;;12.03;4.60;;;;;;;;;;10348687;28;20027;-74
2022/02/04 07:29:16;;;;;;;;;;;;;;;;;;10345589;28;20113;-75
2022/02/04 07:34:34;;;;;;;8.23;3.13;;;;;;;;;;10362967;28;19960;-76
2022/02/04 07:44:58;;;;;;;14.17;5.83;;;;;;;;;;10360280;28;20077;-76
2022/02/04 07:50:01;;;;;;;11.03;3.73;;;;;;;;;;10360140;28;20033;-76
2022/02/04 07:55:06;;;;;;;13.87;5.27;;;;;;;;;;10364670;28;20044;-75
2022/02/04 08:00:13;;;;;;;14.63;6.47;;;;;;;;;;10358708;28;20072;-75
2022/02/04 08:05:19;;;;;;;11.10;5.80;;;;;;;;;;10361948;28;20313;-76
2022/02/04 08:10:29;;;;;;;10.10;4.10;;;;;;;;;;10357434;28;20359;-76
2022/02/04 08:15:48;;;;;;;9.23;3.27;;;;;;;;;;10359728;28;20462;-76
2022/02/04 08:21:21;;;;;;;12.33;5.13;;;;;;;;;;10358630;28;20066;-77
2022/02/04 08:31:58;;;;;;;12.47;5.27;;;;;;;;;;10355585;28;20100;-74
2022/02/04 08:53:19;;;;;;;10.77;5.28;;;;;;;;;;10353558;28;20041;-76
2022/02/04 08:58:30;;;;;;;14.93;6.20;;;;;;;;;;10339531;28;20043;-75
2022/02/04 09:03:42;;;;;;;18.83;7.75;;;;;;;;;;10344163;28;20045;-75
2022/02/04 09:08:52;;;;;;;9.88;4.53;;;;;;;;;;10337780;28;20358;-76
2022/02/04 09:19:20;;;;;;;16.08;7.07;;;;;;;;;;10353877;28;20093;-76
2022/02/04 09:24:23;;;;;;;9.52;4.63;;;;;;;;;;10353566;28;20494;-76
2022/02/04 09:29:28;;;;;;;11.33;4.00;;;;;;;;;;10358667;28;20447;-76
2022/02/04 09:34:30;;;;;;;5.53;3.03;;;;;;;;;;10358439;28;20410;-76
2022/02/04 09:39:33;;;;;;;12.93;4.82;;;;;;;;;;10352990;28;20077;-75
2022/02/04 09:44:38;;;;;;;10.95;4.57;;;;;;;;;;10353364;28;20042;-75
2022/02/04 09:49:43;;;;;;;;;;;;;;;;;;10355404;28;20297;-75
2022/02/04 10:17:05;;;;;;;8.52;4.18;;;;;;;;;;10357100;28;20092;-76
2022/02/04 10:22:07;;;;;;;10.73;3.78;;;;;;;;;;10350022;28;20125;-76
2022/02/04 10:27:11;;;;;;;8.43;3.63;;;;;;;;;;10355259;28;20076;-76
2022/02/04 10:32:16;;;;;;;10.77;4.05;;;;;;;;;;10349986;28;20414;-76
2022/02/04 10:37:26;;;;;;;11.50;4.07;;;;;;;;;;10344494;28;20070;-76
2022/02/04 10:42:54;;;;;;;6.45;2.40;;;;;;;;;;10342555;28;20030;-77
2022/02/04 10:53:51;;;;;;;7.28;2.83;;;;;;;;;;10349770;28;20065;-75
2022/02/04 10:59:11;;;;;;;8.02;3.08;;;;;;;;;;10356338;28;20042;-77
2022/02/04 11:04:22;;;;;;;8.10;4.03;;;;;;;;;;10355461;28;20091;-75
2022/02/04 11:09:48;;;;;;;7.07;1.48;;;;;;;;;;10350441;28;20061;-77
2022/02/04 11:31:12;;;;;;;5.28;2.90;;;;;;;;;;10358014;28;20045;-75
2022/02/04 11:52:33;;;;;;;6.43;2.55;;;;;;;;;;10356903;28;20042;-76
2022/02/04 11:57:37;;;;;;;8.15;2.78;;;;;;;;;;10345767;28;20045;-76
2022/02/04 12:02:57;;;;;;;9.07;3.70;;;;;;;;;;10351988;28;20045;-75
2022/02/04 12:08:30;;;;;;;3.73;1.77;;;;;;;;;;10348837;28;20092;-77
2022/02/04 12:13:55;;;;;;;6.95;3.30;;;;;;;;;;10352101;28;20057;-77
2022/02/04 12:19:08;;;;;;;4.95;2.45;;;;;;;;;;10343254;28;20049;-74
2022/02/04 12:24:26;;;;;;;5.05;2.65;;;;;;;;;;10380202;22;20061;-79
2022/02/04 12:29:30;;;;;;;4.38;2.53;;;;;;;;;;10390371;28;20038;-77
2022/02/04 12:34:35;;;;;;;8.02;3.63;;;;;;;;;;10396232;28;20534;-82
2022/02/04 12:39:37;;;;;;;6.25;2.97;;;;;;;;;;10383284;28;20234;-79
2022/02/04 12:44:43;;;;;;;7.70;2.85;;;;;;;;;;10402614;28;20044;-81
2022/02/04 12:49:47;;;;;;;11.30;4.68;;;;;;;;;;10403005;28;20095;-80
2022/02/04 12:54:54;;;;;;;6.93;3.38;;;;;;;;;;10404537;28;20046;-80
2022/02/04 13:00:03;;;;;;;6.65;3.03;;;;;;;;;;10401371;28;20029;-80
2022/02/04 13:10:28;;;;;;;12.75;5.07;;;;;;;;;;10404756;28;20052;-81
2022/02/04 13:15:33;;;;;;;5.30;3.00;;;;;;;;;;10390589;28;20068;-82
2022/02/04 13:20:37;;;;;;;10.30;4.85;;;;;;;;;;10396848;28;20117;-82
2022/02/04 13:25:40;;;;;;;;;;;;;;;;;;10407371;28;20022;-81
2022/02/04 13:30:49;;;;;;;5.15;2.80;;;;;;;;;;10394018;28;20045;-81
2022/02/04 13:35:54;;;;;;;6.00;2.95;;;;;;;;;;10402943;28;20130;-82
2022/02/04 13:41:07;;;;;;;8.98;3.75;;;;;;;;;;10408118;28;20056;-81
2022/02/04 13:46:20;;;;;;;6.38;2.80;;;;;;;;;;10404091;28;20187;-82
2022/02/04 13:51:40;;;;;;;7.93;3.75;;;;;;;;;;10403141;28;20529;-80
2022/02/04 13:56:49;;;;;;;10.88;4.47;;;;;;;;;;10405292;28;20033;-81
2022/02/04 14:02:07;;;;;;;20.90;5.82;;;;;;;;;;10392780;28;20101;-80
2022/02/04 14:07:11;;;;;;;4.70;2.63;;;;;;;;;;10412887;28;20076;-80
2022/02/04 14:12:15;;;;;;;5.85;2.80;;;;;;;;;;10410538;28;20176;-78
2022/02/04 14:17:18;;;;;;;;;;;;;;;;;;10410533;28;20041;-79
2022/02/04 14:22:22;;;;;;;6.28;2.42;;;;;;;;;;10410662;28;19932;-78
2022/02/04 14:27:26;;;;;;;7.22;2.72;;;;;;;;;;10380662;23;20080;-70
2022/02/04 14:32:38;;;;;;;17.58;4.90;;;;;;;;;;10343554;28;20152;-70
2022/02/04 14:54:01;;;;;;;8.38;3.85;;;;;;;;;;10457377;28;20036;-76
2022/02/04 14:59:42;;;;;;;6.35;3.22;;;;;;;;;;10459785;28;20053;-76
2022/02/04 15:04:43;;;;;;;2.40;1.60;;;;;;;;;;10456611;28;20049;-76
2022/02/04 15:09:50;;;;;;;7.40;3.10;;;;;;;;;;10470094;28;20048;-75
2022/02/04 15:14:53;;;;;;;7.45;2.97;;;;;;;;;;10466760;28;20033;-76
2022/02/04 15:20:00;;;;;;;4.95;2.50;;;;;;;;;;10463091;28;20047;-76
2022/02/04 15:25:11;;;;;;;16.50;3.03;;;;;;;;;;10460149;28;20743;-74
2022/02/04 15:30:23;;;;;;;16.42;2.90;;;;;;;;;;10467711;28;20041;-76
2022/02/04 15:35:31;;;;;;;35.35;10.23;;;;;;;;;;10467852;28;20056;-78
2022/02/04 15:40:42;;;;;;;6.63;2.00;;;;;;;;;;10447410;28;20335;-78
2022/02/04 15:46:21;;;;;;;4.57;1.98;;;;;;;;;;10448011;28;20048;-78
2022/02/04 15:51:38;;;;;;;7.90;2.75;;;;;;;;;;10446786;28;20497;-77
2022/02/04 15:56:53;;;;;;;9.52;2.58;;;;;;;;;;10444428;28;20359;-77
2022/02/04 16:02:15;;;;;;;4.97;2.78;;;;;;;;;;10456695;28;20067;-78
2022/02/04 16:07:20;;;;;;;3.38;1.23;;;;;;;;;;10449867;28;20143;-77
2022/02/04 16:12:31;;;;;;;7.68;2.97;;;;;;;;;;10448625;28;20499;-77
2022/02/04 16:17:42;;;;;;;8.88;3.00;;;;;;;;;;10452309;28;20045;-78
2022/02/04 16:23:02;;;;;;;7.90;3.20;;;;;;;;;;10453901;28;20034;-78
2022/02/04 16:33:27;;;;;;;10.43;3.17;;;;;;;;;;10442851;28;20029;-74
2022/02/04 16:38:34;;;;;;;10.93;3.40;;;;;;;;;;10427087;28;20052;-73
2022/02/04 16:43:39;;;;;;;6.87;3.00;;;;;;;;;;10440714;28;20707;-77
2022/02/04 16:48:43;;;;;;;5.93;2.60;;;;;;;;;;10450608;28;20041;-76
2022/02/04 16:53:46;;;;;;;6.60;3.10;;;;;;;;;;10442014;28;20087;-75
2022/02/04 16:58:50;;;;;;;5.60;2.50;;;;;;;;;;10452921;28;20053;-76
2022/02/04 17:03:54;;;;;;;7.30;2.80;;;;;;;;;;10489904;28;20075;-74
2022/02/04 17:09:09;;;;;;;7.07;2.40;;;;;;;;;;10451628;28;20048;-77
2022/02/04 17:14:14;;;;;;;6.10;2.17;;;;;;;;;;10450203;28;20120;-76
2022/02/04 17:19:22;;;;;;;6.73;2.33;;;;;;;;;;10443508;28;20045;-76
2022/02/04 17:24:25;;;;;;;6.80;3.00;;;;;;;;;;10447210;28;20036;-76
2022/02/04 17:29:30;;;;;;;5.33;3.17;;;;;;;;;;10446537;28;20047;-77
2022/02/04 17:34:33;;;;;;;9.10;3.27;;;;;;;;;;10449028;28;20059;-76
2022/02/04 17:39:37;;;;;;;8.10;2.90;;;;;;;;;;10446938;28;20048;-78
2022/02/04 17:44:42;;;;;;;5.90;2.33;;;;;;;;;;10453491;28;20041;-77
2022/02/04 17:49:55;;;;;;;6.10;3.23;;;;;;;;;;10460873;28;20128;-80
2022/02/04 17:55:03;;;;;;;9.77;3.83;;;;;;;;;;10443712;28;20075;-79
2022/02/04 18:00:54;;;;;;;9.00;3.30;;;;;;;;;;10443123;28;20183;-79
2022/02/04 18:06:04;;;;;;;3.80;1.83;;;;;;;;;;10453215;28;20041;-78
2022/02/04 18:11:12;;;;;;;8.57;2.97;;;;;;;;;;10452455;28;20142;-77
2022/02/04 18:16:19;;;;;;;3.10;1.60;;;;;;;;;;10450477;28;20047;-78
2022/02/04 18:21:23;;;;;;;7.97;4.47;;;;;;;;;;10453624;28;20107;-77
2022/02/04 18:26:27;;;;;;;2.92;1.60;;;;;;;;;;10456075;28;20072;-79
2022/02/04 18:31:32;;;;;;;6.27;2.43;;;;;;;;;;10444922;28;20049;-78
2022/02/04 18:36:35;;;;;;;8.03;3.83;;;;;;;;;;10448842;28;20090;-78
2022/02/04 18:47:01;;;;;;;4.30;2.00;;;;;;;;;;10437839;28;20147;-77
2022/02/04 18:52:19;;;;;;;6.13;2.80;;;;;;;;;;10454293;28;20041;-79
2022/02/04 18:57:24;;;;;;;3.30;1.52;;;;;;;;;;10477764;28;20044;-77
2022/02/04 19:02:30;;;;;;;2.20;1.10;;;;;;;;;;10481230;28;20125;-77
2022/02/04 19:07:42;;;;;;;0.97;0.83;;;;;;;;;;10480381;28;20043;-77
2022/02/04 19:12:49;;;;;;;1.23;0.93;;;;;;;;;;10475639;28;20060;-77
2022/02/04 19:17:57;;;;;;;3.10;1.47;;;;;;;;;;10463098;28;20537;-77
2022/02/04 19:23:04;;;;;;;1.70;0.77;;;;;;;;;;10440423;28;20068;-77
2022/02/04 19:28:10;;;;;;;0.43;0.33;;;;;;;;;;10451068;28;20044;-76
2022/02/04 19:33:16;;;;;;;1.47;1.00;;;;;;;;;;10478655;28;20029;-77
2022/02/04 19:38:20;;;;;;;6.27;1.17;;;;;;;;;;10452536;28;20076;-79
2022/02/04 19:43:25;;;;;;;1.42;0.90;;;;;;;;;;10444057;28;20509;-79
2022/02/04 19:48:33;;;;;;;9.90;1.60;;;;;;;;;;10442261;28;20129;-79
2022/02/04 19:54:08;;;;;;;1.57;1.00;;;;;;;;;;10459630;28;20060;-78
2022/02/04 20:25:58;;;;;;;1.20;0.60;;;;;;;;;;10454581;28;20036;-78
2022/02/04 20:31:02;;;;;;;0.30;0.22;;;;;;;;;;10459600;28;20044;-79
2022/02/04 20:36:06;;;;;;;0.40;0.37;;;;;;;;;;10455971;28;20111;-79
2022/02/04 20:41:11;;;;;;;1.42;0.40;;;;;;;;;;10451166;28;20045;-79
2022/02/04 20:46:18;;;;;;;1.40;0.50;;;;;;;;;;10452878;28;20083;-77
2022/02/04 20:51:26;;;;;;;0.70;0.50;;;;;;;;;;10451534;28;20057;-78
2022/02/04 20:56:30;;;;;;;0.80;0.60;;;;;;;;;;10451705;28;20061;-78
2022/02/04 21:01:33;;;;;;;2.03;1.10;;;;;;;;;;10454683;28;20117;-79
2022/02/04 21:06:50;;;;;;;0.65;0.55;;;;;;;;;;10452672;28;20068;-78
2022/02/04 21:17:20;;;;;;;0.73;0.60;;;;;;;;;;10457992;28;20128;-82
2022/02/04 21:22:24;;;;;;;1.07;0.50;;;;;;;;;;10442543;28;20033;-79
2022/02/04 21:27:29;;;;;;;0.90;0.70;;;;;;;;;;10445805;28;20139;-79
2022/02/04 21:32:34;;;;;;;1.50;0.80;;;;;;;;;;10452122;28;20456;-78
2022/02/04 21:37:42;;;;;;;2.72;1.40;;;;;;;;;;10434667;28;20076;-77
2022/02/04 21:42:46;;;;;;;1.63;0.80;;;;;;;;;;10463591;28;20093;-76
2022/02/04 21:47:52;;;;;;;1.58;0.90;;;;;;;;;;10472258;28;20436;-78
2022/02/04 21:58:06;;;;;;;1.33;1.00;;;;;;;;;;10379951;28;20114;-75
2022/02/04 22:03:09;;;;;;;3.08;1.63;;;;;;;;;;10394321;28;20038;-74
2022/02/04 22:08:20;;;;;;;2.58;1.40;;;;;;;;;;10394023;22;20485;-73
2022/02/04 22:13:33;;;;;;;3.85;1.98;;;;;;;;;;10361355;28;20033;-72
2022/02/04 22:23:57;;;;;;;3.33;1.40;;;;;;;;;;10374597;28;20034;-70
2022/02/04 22:29:01;;;;;;;3.60;1.50;;;;;;;;;;10369671;28;20077;-73
2022/02/04 22:34:17;;;;;;;3.42;2.10;;;;;;;;;;10367671;28;20033;-72
2022/02/04 22:39:37;;;;;;;5.57;2.67;;;;;;;;;;10374338;28;20037;-72
2022/02/04 22:50:07;;;;;;;3.38;1.60;;;;;;;;;;10360753;28;20049;-73
2022/02/04 23:00:38;;;;;;;5.25;2.47;;;;;;;;;;10353849;28;20054;-73
2022/02/04 23:05:42;;;;;;;3.05;1.50;;;;;;;;;;10372949;28;20037;-71
2022/02/04 23:10:45;;;;;;;5.77;2.30;;;;;;;;;;10364358;28;20068;-73
2022/02/04 23:15:55;;;;;;;7.22;4.10;;;;;;;;;;10365991;28;20399;-72
2022/02/04 23:21:00;;;;;;;5.30;2.80;;;;;;;;;;10371971;28;20471;-73
2022/02/04 23:26:08;;;;;;;3.90;1.80;;;;;;;;;;10369919;28;20065;-72
2022/02/04 23:47:20;;;;;;;6.28;3.33;;;;;;;;;;10369531;28;20041;-72
2022/02/04 23:52:24;;;;;;;3.00;1.93;;;;;;;;;;10374648;28;20065;-71
2022/02/04 23:57:32;;;;;;;3.08;1.58;;;;;;;;;;10369187;28;20104;-72
